Weather at Sjöbo Air Base [CLOSED]

Public forecast

Using degrees Celsius for public forecast. Weather courtesy of forecast.io.

Closest aviation weather report (METAR) to Sjöbo Air Base

Closest report is Malmö Sturup Airport, 10.8 nm (20.1 km) SW. Retrieved 2020/09/30 16:20 UTC (15 minutes ago):

ESMS 301620Z 14004KT 9999 FEW027 14/12 Q1016

Closest aviation forecast (TAF) to Sjöbo Air Base

Closest forecast is Malmö Sturup Airport, 10.8 nm (20.1 km) SW. Retrieved 2020/09/30 12:00 UTC (5 hours ago):

TAF ESMS 301108Z 3012/0112 13008KT 9999 SCT025 BECMG 3021/3023 0300 FG VV002 TEMPO 3023/0104 2500 BR BCFG BKN005 BECMG 0104/0106 8000 NSW BKN010 BECMG 0107/0109 BKN020